sensor_id;sensor_type;location;lat;lon;timestamp;temperature;humidity
49236;DHT22;35067;48.134;8.378;2024-01-30T00:00:02;5.70;67.00
49236;DHT22;35067;48.134;8.378;2024-01-30T00:01:03;5.70;68.50
49236;DHT22;35067;48.134;8.378;2024-01-30T00:02:04;5.70;67.50
49236;DHT22;35067;48.134;8.378;2024-01-30T00:03:05;5.60;66.80
49236;DHT22;35067;48.134;8.378;2024-01-30T00:04:06;5.60;67.10
49236;DHT22;35067;48.134;8.378;2024-01-30T00:05:07;5.60;67.00
49236;DHT22;35067;48.134;8.378;2024-01-30T00:06:08;5.60;67.60
49236;DHT22;35067;48.134;8.378;2024-01-30T00:07:09;5.50;67.40
49236;DHT22;35067;48.134;8.378;2024-01-30T00:08:09;5.50;69.60
49236;DHT22;35067;48.134;8.378;2024-01-30T00:09:10;5.50;70.20
49236;DHT22;35067;48.134;8.378;2024-01-30T00:10:11;5.50;70.50
49236;DHT22;35067;48.134;8.378;2024-01-30T00:11:12;5.40;71.50
49236;DHT22;35067;48.134;8.378;2024-01-30T00:12:13;5.40;72.10
49236;DHT22;35067;48.134;8.378;2024-01-30T00:13:13;5.40;72.70
49236;DHT22;35067;48.134;8.378;2024-01-30T00:14:16;5.30;74.00
49236;DHT22;35067;48.134;8.378;2024-01-30T00:15:17;5.20;75.10
49236;DHT22;35067;48.134;8.378;2024-01-30T00:16:25;5.20;76.60
49236;DHT22;35067;48.134;8.378;2024-01-30T00:17:26;5.10;77.50
49236;DHT22;35067;48.134;8.378;2024-01-30T00:18:26;5.00;78.30
49236;DHT22;35067;48.134;8.378;2024-01-30T00:19:27;5.00;79.30
49236;DHT22;35067;48.134;8.378;2024-01-30T00:20:28;4.90;80.90
49236;DHT22;35067;48.134;8.378;2024-01-30T00:21:28;4.70;82.00
49236;DHT22;35067;48.134;8.378;2024-01-30T00:22:29;4.60;84.70
49236;DHT22;35067;48.134;8.378;2024-01-30T00:23:30;4.50;87.40
49236;DHT22;35067;48.134;8.378;2024-01-30T00:24:31;4.50;88.70
49236;DHT22;35067;48.134;8.378;2024-01-30T00:25:32;4.30;89.50
49236;DHT22;35067;48.134;8.378;2024-01-30T00:26:33;4.30;90.40
49236;DHT22;35067;48.134;8.378;2024-01-30T00:27:34;4.30;90.40
49236;DHT22;35067;48.134;8.378;2024-01-30T00:28:35;4.30;90.40
49236;DHT22;35067;48.134;8.378;2024-01-30T00:29:36;4.30;90.50
49236;DHT22;35067;48.134;8.378;2024-01-30T00:30:36;4.30;90.60
49236;DHT22;35067;48.134;8.378;2024-01-30T00:31:37;4.30;90.80
49236;DHT22;35067;48.134;8.378;2024-01-30T00:32:38;4.20;90.90
49236;DHT22;35067;48.134;8.378;2024-01-30T00:33:39;4.20;91.00
49236;DHT22;35067;48.134;8.378;2024-01-30T00:34:41;4.20;91.20
49236;DHT22;35067;48.134;8.378;2024-01-30T00:35:42;4.30;90.80
49236;DHT22;35067;48.134;8.378;2024-01-30T00:36:42;4.20;90.80
49236;DHT22;35067;48.134;8.378;2024-01-30T00:37:43;4.20;91.10
49236;DHT22;35067;48.134;8.378;2024-01-30T00:38:44;4.20;90.90
49236;DHT22;35067;48.134;8.378;2024-01-30T00:39:44;4.10;90.80
49236;DHT22;35067;48.134;8.378;2024-01-30T00:40:45;4.10;90.80
49236;DHT22;35067;48.134;8.378;2024-01-30T00:41:46;4.20;90.70
49236;DHT22;35067;48.134;8.378;2024-01-30T00:42:46;4.00;90.80
49236;DHT22;35067;48.134;8.378;2024-01-30T00:43:47;4.00;90.90
49236;DHT22;35067;48.134;8.378;2024-01-30T00:44:48;4.00;91.10
49236;DHT22;35067;48.134;8.378;2024-01-30T00:45:48;4.00;92.80
49236;DHT22;35067;48.134;8.378;2024-01-30T00:46:49;3.80;92.80
49236;DHT22;35067;48.134;8.378;2024-01-30T00:47:50;3.70;92.80
49236;DHT22;35067;48.134;8.378;2024-01-30T00:48:50;3.70;92.40
49236;DHT22;35067;48.134;8.378;2024-01-30T00:49:51;3.80;92.50
49236;DHT22;35067;48.134;8.378;2024-01-30T00:50:52;3.90;92.30
49236;DHT22;35067;48.134;8.378;2024-01-30T00:51:52;3.90;92.00
49236;DHT22;35067;48.134;8.378;2024-01-30T00:52:53;3.90;91.90
49236;DHT22;35067;48.134;8.378;2024-01-30T00:53:54;3.80;92.20
49236;DHT22;35067;48.134;8.378;2024-01-30T00:54:54;3.80;92.60
49236;DHT22;35067;48.134;8.378;2024-01-30T00:55:55;3.80;92.40
49236;DHT22;35067;48.134;8.378;2024-01-30T00:56:56;3.70;92.50
49236;DHT22;35067;48.134;8.378;2024-01-30T00:57:57;3.80;92.80
49236;DHT22;35067;48.134;8.378;2024-01-30T00:58:57;3.80;92.70
49236;DHT22;35067;48.134;8.378;2024-01-30T00:59:58;3.80;92.60
49236;DHT22;35067;48.134;8.378;2024-01-30T01:00:59;3.80;92.90
49236;DHT22;35067;48.134;8.378;2024-01-30T01:01:59;3.70;93.20
49236;DHT22;35067;48.134;8.378;2024-01-30T01:03:00;3.70;93.10
49236;DHT22;35067;48.134;8.378;2024-01-30T01:04:01;3.70;93.90
49236;DHT22;35067;48.134;8.378;2024-01-30T01:05:03;3.60;93.80
49236;DHT22;35067;48.134;8.378;2024-01-30T01:06:04;3.60;93.70
49236;DHT22;35067;48.134;8.378;2024-01-30T01:07:05;3.60;93.70
49236;DHT22;35067;48.134;8.378;2024-01-30T01:08:05;3.60;94.10
49236;DHT22;35067;48.134;8.378;2024-01-30T01:09:06;3.60;95.00
49236;DHT22;35067;48.134;8.378;2024-01-30T01:10:07;3.50;95.10
49236;DHT22;35067;48.134;8.378;2024-01-30T01:11:08;3.40;95.10
49236;DHT22;35067;48.134;8.378;2024-01-30T01:12:09;3.40;95.30
49236;DHT22;35067;48.134;8.378;2024-01-30T01:13:10;3.30;95.80
49236;DHT22;35067;48.134;8.378;2024-01-30T01:14:11;3.30;96.10
49236;DHT22;35067;48.134;8.378;2024-01-30T01:15:12;3.30;96.80
49236;DHT22;35067;48.134;8.378;2024-01-30T01:16:12;3.20;96.60
49236;DHT22;35067;48.134;8.378;2024-01-30T01:17:13;3.20;96.80
49236;DHT22;35067;48.134;8.378;2024-01-30T01:18:14;3.20;97.10
49236;DHT22;35067;48.134;8.378;2024-01-30T01:19:14;3.20;97.30
49236;DHT22;35067;48.134;8.378;2024-01-30T01:20:15;3.20;97.20
49236;DHT22;35067;48.134;8.378;2024-01-30T01:21:16;3.20;97.20
49236;DHT22;35067;48.134;8.378;2024-01-30T01:22:16;3.20;97.20
49236;DHT22;35067;48.134;8.378;2024-01-30T01:23:18;3.20;97.20
49236;DHT22;35067;48.134;8.378;2024-01-30T01:24:19;3.20;97.20
49236;DHT22;35067;48.134;8.378;2024-01-30T01:25:20;3.20;97.40
49236;DHT22;35067;48.134;8.378;2024-01-30T01:26:20;3.20;97.40
49236;DHT22;35067;48.134;8.378;2024-01-30T01:27:22;3.10;97.50
49236;DHT22;35067;48.134;8.378;2024-01-30T01:28:22;3.20;97.60
49236;DHT22;35067;48.134;8.378;2024-01-30T01:29:23;3.20;97.80
49236;DHT22;35067;48.134;8.378;2024-01-30T01:30:29;3.10;97.80
49236;DHT22;35067;48.134;8.378;2024-01-30T01:31:30;3.10;97.70
49236;DHT22;35067;48.134;8.378;2024-01-30T01:32:31;3.10;97.60
49236;DHT22;35067;48.134;8.378;2024-01-30T01:33:32;3.10;97.20
49236;DHT22;35067;48.134;8.378;2024-01-30T01:34:33;3.20;95.70
49236;DHT22;35067;48.134;8.378;2024-01-30T01:35:35;3.30;95.00
49236;DHT22;35067;48.134;8.378;2024-01-30T01:36:35;3.60;92.90
49236;DHT22;35067;48.134;8.378;2024-01-30T01:37:36;3.70;93.10
49236;DHT22;35067;48.134;8.378;2024-01-30T01:38:37;3.70;92.20
49236;DHT22;35067;48.134;8.378;2024-01-30T01:39:37;3.70;89.10
49236;DHT22;35067;48.134;8.378;2024-01-30T01:40:38;4.00;86.10
49236;DHT22;35067;48.134;8.378;2024-01-30T01:41:40;4.30;70.20
49236;DHT22;35067;48.134;8.378;2024-01-30T01:42:40;4.70;65.90
49236;DHT22;35067;48.134;8.378;2024-01-30T01:43:41;5.00;59.20
49236;DHT22;35067;48.134;8.378;2024-01-30T01:44:42;5.40;56.00
49236;DHT22;35067;48.134;8.378;2024-01-30T01:45:42;5.60;60.20
49236;DHT22;35067;48.134;8.378;2024-01-30T01:46:43;5.70;64.40
49236;DHT22;35067;48.134;8.378;2024-01-30T01:47:46;5.90;59.00
49236;DHT22;35067;48.134;8.378;2024-01-30T01:48:47;6.00;57.00
49236;DHT22;35067;48.134;8.378;2024-01-30T01:49:49;6.10;56.70
49236;DHT22;35067;48.134;8.378;2024-01-30T01:50:49;6.20;53.60
49236;DHT22;35067;48.134;8.378;2024-01-30T01:51:51;6.20;51.70
49236;DHT22;35067;48.134;8.378;2024-01-30T01:52:54;6.60;50.80
49236;DHT22;35067;48.134;8.378;2024-01-30T01:53:56;6.70;50.80
49236;DHT22;35067;48.134;8.378;2024-01-30T01:54:57;6.80;48.00
49236;DHT22;35067;48.134;8.378;2024-01-30T01:55:58;6.90;50.50
49236;DHT22;35067;48.134;8.378;2024-01-30T01:56:59;6.90;47.90
49236;DHT22;35067;48.134;8.378;2024-01-30T01:58:00;7.00;47.70
49236;DHT22;35067;48.134;8.378;2024-01-30T01:59:06;7.20;44.70
49236;DHT22;35067;48.134;8.378;2024-01-30T02:00:10;7.50;44.10
49236;DHT22;35067;48.134;8.378;2024-01-30T02:01:11;7.60;44.00
49236;DHT22;35067;48.134;8.378;2024-01-30T02:02:14;7.60;43.70
49236;DHT22;35067;48.134;8.378;2024-01-30T02:03:17;7.70;43.90
49236;DHT22;35067;48.134;8.378;2024-01-30T02:04:18;7.70;44.30
49236;DHT22;35067;48.134;8.378;2024-01-30T02:05:19;7.90;43.40
49236;DHT22;35067;48.134;8.378;2024-01-30T02:06:20;7.90;42.60
49236;DHT22;35067;48.134;8.378;2024-01-30T02:07:20;8.10;41.10
49236;DHT22;35067;48.134;8.378;2024-01-30T02:08:22;8.10;42.60
49236;DHT22;35067;48.134;8.378;2024-01-30T02:09:24;8.10;42.20
49236;DHT22;35067;48.134;8.378;2024-01-30T02:10:24;8.20;42.50
49236;DHT22;35067;48.134;8.378;2024-01-30T02:11:25;8.10;42.50
49236;DHT22;35067;48.134;8.378;2024-01-30T02:12:26;8.10;42.20
49236;DHT22;35067;48.134;8.378;2024-01-30T02:13:26;8.10;41.90
49236;DHT22;35067;48.134;8.378;2024-01-30T02:14:27;8.10;41.00
49236;DHT22;35067;48.134;8.378;2024-01-30T02:15:28;8.20;40.90
49236;DHT22;35067;48.134;8.378;2024-01-30T02:16:29;8.40;40.70
49236;DHT22;35067;48.134;8.378;2024-01-30T02:17:30;8.40;40.90
49236;DHT22;35067;48.134;8.378;2024-01-30T02:18:31;8.30;40.90
49236;DHT22;35067;48.134;8.378;2024-01-30T02:19:32;8.30;41.40
49236;DHT22;35067;48.134;8.378;2024-01-30T02:20:35;8.30;43.10
49236;DHT22;35067;48.134;8.378;2024-01-30T02:21:36;8.40;40.90
49236;DHT22;35067;48.134;8.378;2024-01-30T02:22:37;8.40;41.90
49236;DHT22;35067;48.134;8.378;2024-01-30T02:23:39;8.30;41.60
49236;DHT22;35067;48.134;8.378;2024-01-30T02:24:40;8.30;41.00
49236;DHT22;35067;48.134;8.378;2024-01-30T02:25:42;8.20;40.90
49236;DHT22;35067;48.134;8.378;2024-01-30T02:26:44;8.30;40.20
49236;DHT22;35067;48.134;8.378;2024-01-30T02:27:45;8.40;40.30
49236;DHT22;35067;48.134;8.378;2024-01-30T02:28:46;8.40;40.30
49236;DHT22;35067;48.134;8.378;2024-01-30T02:29:46;8.50;40.60
49236;DHT22;35067;48.134;8.378;2024-01-30T02:30:47;8.50;40.10
49236;DHT22;35067;48.134;8.378;2024-01-30T02:31:48;8.50;39.30
49236;DHT22;35067;48.134;8.378;2024-01-30T02:32:48;8.50;39.90
49236;DHT22;35067;48.134;8.378;2024-01-30T02:33:49;8.40;39.80
49236;DHT22;35067;48.134;8.378;2024-01-30T02:34:50;8.40;39.20
49236;DHT22;35067;48.134;8.378;2024-01-30T02:35:50;8.40;38.90
49236;DHT22;35067;48.134;8.378;2024-01-30T02:36:51;8.40;40.00
49236;DHT22;35067;48.134;8.378;2024-01-30T02:37:52;8.40;40.40
49236;DHT22;35067;48.134;8.378;2024-01-30T02:38:52;8.30;40.10
49236;DHT22;35067;48.134;8.378;2024-01-30T02:39:53;8.20;39.60
49236;DHT22;35067;48.134;8.378;2024-01-30T02:40:54;8.30;40.30
49236;DHT22;35067;48.134;8.378;2024-01-30T02:41:54;8.20;41.60
49236;DHT22;35067;48.134;8.378;2024-01-30T02:42:56;8.20;40.80
49236;DHT22;35067;48.134;8.378;2024-01-30T02:43:56;8.20;40.00
49236;DHT22;35067;48.134;8.378;2024-01-30T02:44:57;8.20;40.90
49236;DHT22;35067;48.134;8.378;2024-01-30T02:45:58;8.20;41.00
49236;DHT22;35067;48.134;8.378;2024-01-30T02:47:00;8.20;40.00
49236;DHT22;35067;48.134;8.378;2024-01-30T02:48:00;8.10;40.90
49236;DHT22;35067;48.134;8.378;2024-01-30T02:49:01;8.10;39.60
49236;DHT22;35067;48.134;8.378;2024-01-30T02:50:02;8.20;40.50
49236;DHT22;35067;48.134;8.378;2024-01-30T02:51:03;8.20;41.10
49236;DHT22;35067;48.134;8.378;2024-01-30T02:52:04;8.10;41.40
49236;DHT22;35067;48.134;8.378;2024-01-30T02:53:05;8.10;40.50
49236;DHT22;35067;48.134;8.378;2024-01-30T02:54:06;8.10;40.70
49236;DHT22;35067;48.134;8.378;2024-01-30T02:55:07;8.10;41.80
49236;DHT22;35067;48.134;8.378;2024-01-30T02:56:07;8.10;41.40
49236;DHT22;35067;48.134;8.378;2024-01-30T02:57:10;8.10;41.50
49236;DHT22;35067;48.134;8.378;2024-01-30T02:58:10;7.90;41.80
49236;DHT22;35067;48.134;8.378;2024-01-30T02:59:11;7.90;41.60
49236;DHT22;35067;48.134;8.378;2024-01-30T03:00:12;7.90;42.20
49236;DHT22;35067;48.134;8.378;2024-01-30T03:01:13;7.80;42.80
49236;DHT22;35067;48.134;8.378;2024-01-30T03:02:14;7.80;42.60
49236;DHT22;35067;48.134;8.378;2024-01-30T03:03:14;7.70;45.70
49236;DHT22;35067;48.134;8.378;2024-01-30T03:04:15;7.70;41.70
49236;DHT22;35067;48.134;8.378;2024-01-30T03:05:16;7.70;42.90
49236;DHT22;35067;48.134;8.378;2024-01-30T03:06:16;7.60;42.80
49236;DHT22;35067;48.134;8.378;2024-01-30T03:07:17;7.60;43.00
49236;DHT22;35067;48.134;8.378;2024-01-30T03:08:18;7.60;44.20
49236;DHT22;35067;48.134;8.378;2024-01-30T03:09:19;7.60;44.90
49236;DHT22;35067;48.134;8.378;2024-01-30T03:10:20;7.50;44.30
49236;DHT22;35067;48.134;8.378;2024-01-30T03:11:20;7.50;45.40
49236;DHT22;35067;48.134;8.378;2024-01-30T03:12:22;7.50;47.20
49236;DHT22;35067;48.134;8.378;2024-01-30T03:13:22;7.40;48.00
49236;DHT22;35067;48.134;8.378;2024-01-30T03:14:25;7.30;50.70
49236;DHT22;35067;48.134;8.378;2024-01-30T03:15:26;7.20;49.20
49236;DHT22;35067;48.134;8.378;2024-01-30T03:16:27;7.10;48.40
49236;DHT22;35067;48.134;8.378;2024-01-30T03:17:27;7.00;49.20
49236;DHT22;35067;48.134;8.378;2024-01-30T03:18:28;6.80;49.10
49236;DHT22;35067;48.134;8.378;2024-01-30T03:19:29;6.70;48.50
49236;DHT22;35067;48.134;8.378;2024-01-30T03:20:30;6.70;48.30
49236;DHT22;35067;48.134;8.378;2024-01-30T03:21:31;6.70;51.80
49236;DHT22;35067;48.134;8.378;2024-01-30T03:22:32;6.50;54.70
49236;DHT22;35067;48.134;8.378;2024-01-30T03:23:33;6.30;55.00
49236;DHT22;35067;48.134;8.378;2024-01-30T03:24:33;6.20;51.90
49236;DHT22;35067;48.134;8.378;2024-01-30T03:25:34;6.30;50.30
49236;DHT22;35067;48.134;8.378;2024-01-30T03:26:35;6.20;53.50
49236;DHT22;35067;48.134;8.378;2024-01-30T03:27:35;6.20;54.60
49236;DHT22;35067;48.134;8.378;2024-01-30T03:28:36;6.30;52.10
49236;DHT22;35067;48.134;8.378;2024-01-30T03:29:37;6.20;56.80
49236;DHT22;35067;48.134;8.378;2024-01-30T03:30:37;6.00;56.50
49236;DHT22;35067;48.134;8.378;2024-01-30T03:31:39;5.90;56.60
49236;DHT22;35067;48.134;8.378;2024-01-30T03:32:39;5.90;58.70
49236;DHT22;35067;48.134;8.378;2024-01-30T03:33:40;5.70;59.10
49236;DHT22;35067;48.134;8.378;2024-01-30T03:34:41;5.50;60.80
49236;DHT22;35067;48.134;8.378;2024-01-30T03:35:41;5.30;61.60
49236;DHT22;35067;48.134;8.378;2024-01-30T03:36:43;5.20;62.00
49236;DHT22;35067;48.134;8.378;2024-01-30T03:37:43;5.20;62.20
49236;DHT22;35067;48.134;8.378;2024-01-30T03:38:44;5.10;62.80
49236;DHT22;35067;48.134;8.378;2024-01-30T03:39:45;5.10;66.50
49236;DHT22;35067;48.134;8.378;2024-01-30T03:40:45;5.00;65.80
49236;DHT22;35067;48.134;8.378;2024-01-30T03:41:46;5.00;66.00
49236;DHT22;35067;48.134;8.378;2024-01-30T03:42:47;5.00;66.20
49236;DHT22;35067;48.134;8.378;2024-01-30T03:43:47;4.90;64.60
49236;DHT22;35067;48.134;8.378;2024-01-30T03:44:48;4.90;65.60
49236;DHT22;35067;48.134;8.378;2024-01-30T03:45:52;4.80;64.00
49236;DHT22;35067;48.134;8.378;2024-01-30T03:46:53;4.80;60.40
49236;DHT22;35067;48.134;8.378;2024-01-30T03:47:53;4.90;63.00
49236;DHT22;35067;48.134;8.378;2024-01-30T03:48:54;4.90;63.20
49236;DHT22;35067;48.134;8.378;2024-01-30T03:49:55;5.00;64.10
49236;DHT22;35067;48.134;8.378;2024-01-30T03:50:55;5.00;63.20
49236;DHT22;35067;48.134;8.378;2024-01-30T03:51:56;5.00;64.50
49236;DHT22;35067;48.134;8.378;2024-01-30T03:52:57;4.90;65.70
49236;DHT22;35067;48.134;8.378;2024-01-30T03:53:57;4.90;67.00
49236;DHT22;35067;48.134;8.378;2024-01-30T03:54:58;4.90;67.00
49236;DHT22;35067;48.134;8.378;2024-01-30T03:55:59;4.90;67.30
49236;DHT22;35067;48.134;8.378;2024-01-30T03:56:59;4.90;68.70
49236;DHT22;35067;48.134;8.378;2024-01-30T03:58:00;4.90;69.60
49236;DHT22;35067;48.134;8.378;2024-01-30T03:59:01;4.80;68.60
49236;DHT22;35067;48.134;8.378;2024-01-30T04:00:03;4.90;66.60
49236;DHT22;35067;48.134;8.378;2024-01-30T04:01:05;4.80;66.20
49236;DHT22;35067;48.134;8.378;2024-01-30T04:02:06;4.80;67.90
49236;DHT22;35067;48.134;8.378;2024-01-30T04:03:06;4.80;68.70
49236;DHT22;35067;48.134;8.378;2024-01-30T04:04:07;4.70;69.20
49236;DHT22;35067;48.134;8.378;2024-01-30T04:05:08;4.50;71.30
49236;DHT22;35067;48.134;8.378;2024-01-30T04:06:09;4.40;73.00
49236;DHT22;35067;48.134;8.378;2024-01-30T04:07:09;4.30;72.40
49236;DHT22;35067;48.134;8.378;2024-01-30T04:08:10;4.30;75.30
49236;DHT22;35067;48.134;8.378;2024-01-30T04:09:11;4.20;76.20
49236;DHT22;35067;48.134;8.378;2024-01-30T04:10:13;4.20;75.60
49236;DHT22;35067;48.134;8.378;2024-01-30T04:11:14;4.20;75.30
49236;DHT22;35067;48.134;8.378;2024-01-30T04:12:14;4.20;75.80
49236;DHT22;35067;48.134;8.378;2024-01-30T04:13:15;4.20;77.70
49236;DHT22;35067;48.134;8.378;2024-01-30T04:14:16;4.20;75.50
49236;DHT22;35067;48.134;8.378;2024-01-30T04:15:17;4.30;75.60
49236;DHT22;35067;48.134;8.378;2024-01-30T04:16:21;4.20;75.10
49236;DHT22;35067;48.134;8.378;2024-01-30T04:17:22;4.00;75.60
49236;DHT22;35067;48.134;8.378;2024-01-30T04:18:23;4.10;74.00
49236;DHT22;35067;48.134;8.378;2024-01-30T04:19:23;4.20;74.20
49236;DHT22;35067;48.134;8.378;2024-01-30T04:20:24;4.10;74.10
49236;DHT22;35067;48.134;8.378;2024-01-30T04:21:26;4.20;74.40
49236;DHT22;35067;48.134;8.378;2024-01-30T04:22:26;4.10;75.60
49236;DHT22;35067;48.134;8.378;2024-01-30T04:23:27;4.10;76.80
49236;DHT22;35067;48.134;8.378;2024-01-30T04:24:27;4.10;77.20
49236;DHT22;35067;48.134;8.378;2024-01-30T04:25:28;4.10;77.80
49236;DHT22;35067;48.134;8.378;2024-01-30T04:26:29;4.10;76.90
49236;DHT22;35067;48.134;8.378;2024-01-30T04:27:29;4.10;75.60
49236;DHT22;35067;48.134;8.378;2024-01-30T04:28:30;4.00;73.60
49236;DHT22;35067;48.134;8.378;2024-01-30T04:29:31;4.10;75.30
49236;DHT22;35067;48.134;8.378;2024-01-30T04:30:33;4.10;75.40
49236;DHT22;35067;48.134;8.378;2024-01-30T04:31:36;4.10;75.30
49236;DHT22;35067;48.134;8.378;2024-01-30T04:32:37;4.10;75.20
49236;DHT22;35067;48.134;8.378;2024-01-30T04:33:37;4.10;75.40
49236;DHT22;35067;48.134;8.378;2024-01-30T04:34:38;4.20;79.70
49236;DHT22;35067;48.134;8.378;2024-01-30T04:35:39;4.10;79.90
49236;DHT22;35067;48.134;8.378;2024-01-30T04:36:39;4.00;79.50
49236;DHT22;35067;48.134;8.378;2024-01-30T04:37:40;4.10;82.50
49236;DHT22;35067;48.134;8.378;2024-01-30T04:38:41;3.90;83.00
49236;DHT22;35067;48.134;8.378;2024-01-30T04:39:41;3.70;82.10
49236;DHT22;35067;48.134;8.378;2024-01-30T04:40:42;3.90;78.30
49236;DHT22;35067;48.134;8.378;2024-01-30T04:41:43;3.90;78.10
49236;DHT22;35067;48.134;8.378;2024-01-30T04:42:43;3.90;81.10
49236;DHT22;35067;48.134;8.378;2024-01-30T04:43:44;4.00;81.50
49236;DHT22;35067;48.134;8.378;2024-01-30T04:44:45;3.90;82.00
49236;DHT22;35067;48.134;8.378;2024-01-30T04:45:45;3.90;85.00
49236;DHT22;35067;48.134;8.378;2024-01-30T04:46:46;3.80;84.30
49236;DHT22;35067;48.134;8.378;2024-01-30T04:47:47;3.80;84.20
49236;DHT22;35067;48.134;8.378;2024-01-30T04:48:47;3.80;82.40
49236;DHT22;35067;48.134;8.378;2024-01-30T04:49:50;3.80;80.30
49236;DHT22;35067;48.134;8.378;2024-01-30T04:50:51;3.70;79.60
49236;DHT22;35067;48.134;8.378;2024-01-30T04:51:52;3.90;70.50
49236;DHT22;35067;48.134;8.378;2024-01-30T04:52:52;4.10;72.20
49236;DHT22;35067;48.134;8.378;2024-01-30T04:53:53;4.20;76.00
49236;DHT22;35067;48.134;8.378;2024-01-30T04:54:54;4.20;75.90
49236;DHT22;35067;48.134;8.378;2024-01-30T04:55:54;4.30;76.00
49236;DHT22;35067;48.134;8.378;2024-01-30T04:56:55;4.20;77.80
49236;DHT22;35067;48.134;8.378;2024-01-30T04:57:56;4.20;77.90
49236;DHT22;35067;48.134;8.378;2024-01-30T04:58:56;4.10;78.20
49236;DHT22;35067;48.134;8.378;2024-01-30T04:59:57;4.00;78.70
49236;DHT22;35067;48.134;8.378;2024-01-30T05:00:58;4.10;78.20
49236;DHT22;35067;48.134;8.378;2024-01-30T05:01:58;4.10;76.00
49236;DHT22;35067;48.134;8.378;2024-01-30T05:02:59;4.20;75.50
49236;DHT22;35067;48.134;8.378;2024-01-30T05:04:00;4.20;68.60
49236;DHT22;35067;48.134;8.378;2024-01-30T05:05:01;4.20;65.00
49236;DHT22;35067;48.134;8.378;2024-01-30T05:06:02;4.40;60.80
49236;DHT22;35067;48.134;8.378;2024-01-30T05:07:02;4.60;61.20
49236;DHT22;35067;48.134;8.378;2024-01-30T05:08:03;4.80;61.90
49236;DHT22;35067;48.134;8.378;2024-01-30T05:09:04;4.90;60.60
49236;DHT22;35067;48.134;8.378;2024-01-30T05:10:05;5.00;58.70
49236;DHT22;35067;48.134;8.378;2024-01-30T05:11:06;5.10;56.90
49236;DHT22;35067;48.134;8.378;2024-01-30T05:12:07;5.20;54.30
49236;DHT22;35067;48.134;8.378;2024-01-30T05:13:08;5.40;52.20
49236;DHT22;35067;48.134;8.378;2024-01-30T05:14:09;5.50;57.10
49236;DHT22;35067;48.134;8.378;2024-01-30T05:15:09;5.60;55.10
49236;DHT22;35067;48.134;8.378;2024-01-30T05:16:10;5.60;52.10
49236;DHT22;35067;48.134;8.378;2024-01-30T05:17:11;5.80;52.30
49236;DHT22;35067;48.134;8.378;2024-01-30T05:18:13;5.90;51.00
49236;DHT22;35067;48.134;8.378;2024-01-30T05:19:14;6.10;48.70
49236;DHT22;35067;48.134;8.378;2024-01-30T05:20:14;6.20;48.70
49236;DHT22;35067;48.134;8.378;2024-01-30T05:21:15;6.40;47.20
49236;DHT22;35067;48.134;8.378;2024-01-30T05:22:16;6.70;46.90
49236;DHT22;35067;48.134;8.378;2024-01-30T05:23:18;6.70;47.20
49236;DHT22;35067;48.134;8.378;2024-01-30T05:24:19;6.80;47.10
49236;DHT22;35067;48.134;8.378;2024-01-30T05:25:20;6.90;47.10
49236;DHT22;35067;48.134;8.378;2024-01-30T05:26:21;7.00;45.30
49236;DHT22;35067;48.134;8.378;2024-01-30T05:27:23;7.00;45.10
49236;DHT22;35067;48.134;8.378;2024-01-30T05:28:23;7.00;44.90
49236;DHT22;35067;48.134;8.378;2024-01-30T05:29:24;7.10;45.10
49236;DHT22;35067;48.134;8.378;2024-01-30T05:30:25;7.00;47.70
49236;DHT22;35067;48.134;8.378;2024-01-30T05:31:25;6.80;46.20
49236;DHT22;35067;48.134;8.378;2024-01-30T05:32:27;6.80;45.00
49236;DHT22;35067;48.134;8.378;2024-01-30T05:33:28;6.90;44.90
49236;DHT22;35067;48.134;8.378;2024-01-30T05:34:28;6.80;45.10
49236;DHT22;35067;48.134;8.378;2024-01-30T05:35:29;6.80;45.40
49236;DHT22;35067;48.134;8.378;2024-01-30T05:36:30;6.80;45.00
49236;DHT22;35067;48.134;8.378;2024-01-30T05:37:30;6.70;45.90
49236;DHT22;35067;48.134;8.378;2024-01-30T05:38:31;6.80;46.80
49236;DHT22;35067;48.134;8.378;2024-01-30T05:39:32;6.70;46.10
49236;DHT22;35067;48.134;8.378;2024-01-30T05:40:33;6.70;45.80
49236;DHT22;35067;48.134;8.378;2024-01-30T05:41:34;6.80;44.00
49236;DHT22;35067;48.134;8.378;2024-01-30T05:42:34;6.90;44.80
49236;DHT22;35067;48.134;8.378;2024-01-30T05:43:35;7.00;45.40
49236;DHT22;35067;48.134;8.378;2024-01-30T05:44:36;7.00;46.10
49236;DHT22;35067;48.134;8.378;2024-01-30T05:45:36;6.90;46.90
49236;DHT22;35067;48.134;8.378;2024-01-30T05:46:37;6.80;47.10
49236;DHT22;35067;48.134;8.378;2024-01-30T05:47:39;6.80;47.50
49236;DHT22;35067;48.134;8.378;2024-01-30T05:48:39;6.70;45.80
49236;DHT22;35067;48.134;8.378;2024-01-30T05:49:40;6.60;47.30
49236;DHT22;35067;48.134;8.378;2024-01-30T05:50:41;6.60;45.40
49236;DHT22;35067;48.134;8.378;2024-01-30T05:51:41;6.60;46.10
49236;DHT22;35067;48.134;8.378;2024-01-30T05:52:42;6.60;48.20
49236;DHT22;35067;48.134;8.378;2024-01-30T05:53:43;6.50;48.30
49236;DHT22;35067;48.134;8.378;2024-01-30T05:54:44;6.60;44.70
49236;DHT22;35067;48.134;8.378;2024-01-30T05:55:44;6.80;45.10
49236;DHT22;35067;48.134;8.378;2024-01-30T05:56:45;6.70;45.20
49236;DHT22;35067;48.134;8.378;2024-01-30T05:57:46;6.70;45.70
49236;DHT22;35067;48.134;8.378;2024-01-30T05:58:47;6.70;44.00
49236;DHT22;35067;48.134;8.378;2024-01-30T05:59:47;6.80;43.40
49236;DHT22;35067;48.134;8.378;2024-01-30T06:00:48;6.70;46.80
49236;DHT22;35067;48.134;8.378;2024-01-30T06:01:49;6.50;48.90
49236;DHT22;35067;48.134;8.378;2024-01-30T06:02:49;6.40;48.40
49236;DHT22;35067;48.134;8.378;2024-01-30T06:03:50;6.30;45.60
49236;DHT22;35067;48.134;8.378;2024-01-30T06:04:51;6.30;48.80
49236;DHT22;35067;48.134;8.378;2024-01-30T06:05:51;6.20;49.50
49236;DHT22;35067;48.134;8.378;2024-01-30T06:06:52;6.10;49.90
49236;DHT22;35067;48.134;8.378;2024-01-30T06:07:53;6.10;46.90
49236;DHT22;35067;48.134;8.378;2024-01-30T06:08:53;6.20;44.30
49236;DHT22;35067;48.134;8.378;2024-01-30T06:09:56;6.20;45.30
49236;DHT22;35067;48.134;8.378;2024-01-30T06:10:57;6.30;45.10
49236;DHT22;35067;48.134;8.378;2024-01-30T06:11:58;6.40;44.40
49236;DHT22;35067;48.134;8.378;2024-01-30T06:12:58;6.50;43.90
49236;DHT22;35067;48.134;8.378;2024-01-30T06:13:59;6.60;47.30
49236;DHT22;35067;48.134;8.378;2024-01-30T06:15:00;6.50;47.70
49236;DHT22;35067;48.134;8.378;2024-01-30T06:16:01;6.40;45.00
49236;DHT22;35067;48.134;8.378;2024-01-30T06:17:01;6.50;46.00
49236;DHT22;35067;48.134;8.378;2024-01-30T06:18:03;6.40;46.00
49236;DHT22;35067;48.134;8.378;2024-01-30T06:19:03;6.40;46.30
49236;DHT22;35067;48.134;8.378;2024-01-30T06:20:05;6.40;44.90
49236;DHT22;35067;48.134;8.378;2024-01-30T06:21:06;6.60;42.90
49236;DHT22;35067;48.134;8.378;2024-01-30T06:22:07;6.60;47.80
49236;DHT22;35067;48.134;8.378;2024-01-30T06:23:07;6.40;48.10
49236;DHT22;35067;48.134;8.378;2024-01-30T06:24:08;6.30;46.70
49236;DHT22;35067;48.134;8.378;2024-01-30T06:25:09;6.30;47.60
49236;DHT22;35067;48.134;8.378;2024-01-30T06:26:10;6.20;47.90
49236;DHT22;35067;48.134;8.378;2024-01-30T06:27:11;6.10;47.00
49236;DHT22;35067;48.134;8.378;2024-01-30T06:28:12;6.20;46.10
49236;DHT22;35067;48.134;8.378;2024-01-30T06:29:12;6.30;47.20
49236;DHT22;35067;48.134;8.378;2024-01-30T06:30:15;6.20;47.70